Latest Weather Observations for Armidale Airport

IDN60801

Issued at 10:32 pm EST Tuesday 25 July 2017 (issued every 30 minutes, with the page automatically refreshed every 10 minutes)

About weather observations | Map of weather stations | Latest weather observations for NSW | Other Formats
Station Details ID: 056238 Name: ARMIDALE AIRPORT AWS Lat: -30.53 Lon: 151.62 Height: 1079.0 m
Data from the previous 72 hours. | See also: Recent months at Armidale Airport
Date/Time
EST
Temp
°C
App
Temp
°C
Dew
Point
°C
Rel
Hum
%
Delta-T
°C
Wind Press
QNH
hPa
Press
MSL
hPa
Rain since
9am
mm
Dir  Spd
km/h
Gust
km/h
Spd
kts
Gust
kts
25/10:30pm 3.2 -1.3 -0.3 78 1.4 NW 13 15 7 8 1023.8 1024.1 0.0
25/10:00pm 3.5 -0.7 -0.9 73 1.7 NW 11 13 6 7 1023.8 1024.1 0.0
25/09:30pm 3.6 -0.5 -0.4 75 1.6 WNW 11 13 6 7 1023.8 1024.1 0.0
25/09:00pm 3.2 -0.6 -0.8 75 1.6 NW 9 11 5 6 1023.6 1023.9 0.0
25/08:30pm 3.1 -0.4 -1.3 73 1.7 WNW 7 9 4 5 1023.7 1024.0 0.0
25/08:00pm 4.2 0.0 -1.0 69 2.0 WNW 11 13 6 7 1023.6 1023.9 0.0
25/07:30pm 4.7 0.9 -0.7 68 2.2 NW 9 11 5 6 1023.8 1024.1 0.0
25/07:00pm 4.8 1.3 -1.0 66 2.3 WNW 7 9 4 5 1023.8 1024.1 0.0
25/06:30pm 5.9 2.5 -0.4 64 2.6 W 7 9 4 5 1023.8 1024.1 0.0
25/06:00pm 5.8 2.3 -1.3 60 2.8 WNW 7 9 4 5 1023.6 1023.9 0.0
25/05:30pm 7.0 3.5 -1.7 54 3.5 WNW 7 9 4 5 1023.2 1023.5 0.0
25/05:00pm 9.7 5.1 -0.8 48 4.4 W 13 15 7 8 1023.0 1023.3 0.0
25/04:30pm 11.2 5.9 -0.9 43 5.2 W 17 24 9 13 1023.0 1023.3 0.0
25/04:00pm 12.0 6.1 -0.8 41 5.5 W 20 30 11 16 1023.1 1023.4 0.0
25/03:30pm 12.3 6.0 -1.2 39 5.8 W 22 30 12 16 1023.1 1023.4 0.0
25/03:00pm 12.6 6.1 -2.1 36 6.2 W 22 30 12 16 1023.1 1023.4 0.0
25/02:30pm 12.7 5.4 -3.1 33 6.5 W 26 33 14 18 1022.9 1023.2 0.0
25/02:00pm 12.1 5.4 -1.4 39 5.7 W 24 33 13 18 1023.1 1023.4 0.0
25/01:30pm 12.2 4.6 -2.0 37 6.0 W 28 37 15 20 1023.1 1023.4 0.0
25/01:00pm 11.7 5.4 -1.1 41 5.4 W 22 32 12 17 1023.4 1023.6 0.0
25/12:30pm 11.8 6.0 -0.4 43 5.3 W 20 28 11 15 1023.7 1024.0 0.0
25/12:00pm 11.0 4.9 0.1 47 4.7 W 22 28 12 15 1023.9 1024.2 0.0
25/11:30am 10.2 4.4 0.0 49 4.4 WSW 20 26 11 14 1024.6 1024.9 0.0
25/11:00am 9.8 4.3 0.4 52 4.1 W 19 24 10 13 1025.0 1025.3 0.0
25/10:30am 8.8 4.1 1.0 58 3.4 W 15 20 8 11 1025.4 1025.7 0.0
25/10:00am 8.5 3.6 1.9 63 2.9 WSW 17 24 9 13 1025.6 1025.9 0.0
25/09:30am 8.0 3.1 2.3 67 2.5 W 17 20 9 11 1025.5 1025.8 0.0
25/09:00am 7.5 4.0 3.6 76 1.8 WNW 11 17 6 9 1025.5 1025.8 0.0
25/08:30am 6.2 2.7 3.7 84 1.1 NW 11 13 6 7 1025.1 1025.5 0.0
25/08:00am 4.0 1.0 2.0 87 0.8 NW 7 9 4 5 1025.0 1025.3 0.0
25/07:30am 2.5 -1.0 1.2 91 0.5 NW 9 9 5 5 1024.7 1025.0 0.0
25/07:00am 1.3 -2.4 0.0 91 0.5 NW 9 9 5 5 1024.5 1024.8 0.0
25/06:30am 0.0 -3.9 -1.3 91 0.5 NW 9 11 5 6 1024.0 1024.3 0.0
25/06:00am -0.1 -2.3 -1.5 90 0.5 CALM 0 4 0 2 1023.9 1024.2 0.0
25/05:30am 0.1 -3.4 -1.6 88 0.6 NW 7 9 4 5 1023.4 1023.6 0.0
25/05:00am 0.7 -3.2 -1.2 87 0.8 NW 9 11 5 6 1022.9 1023.2 0.0
25/04:30am 1.2 -2.1 -0.9 86 0.8 NW 6 7 3 4 1022.9 1023.2 0.0
25/04:00am 0.9 -2.4 -1.5 84 0.9 NW 6 7 3 4 1022.9 1023.2 0.0
25/03:30am 0.4 -3.6 -2.0 84 0.9 NW 9 11 5 6 1022.9 1023.2 0.0
25/03:00am 0.9 -3.0 -1.7 83 1.0 NW 9 11 5 6 1022.9 1023.2 0.0
25/02:30am 1.5 -1.8 -1.2 82 1.0 WNW 6 7 3 4 1022.9 1023.2 0.0
25/02:00am 0.7 -3.6 -2.0 82 1.0 WNW 11 13 6 7 1022.9 1023.2 0.0
25/01:30am 1.5 -2.8 -1.4 81 1.1 WNW 11 11 6 6 1022.9 1023.2 0.0
25/01:00am 1.5 -2.4 -1.6 80 1.2 WNW 9 11 5 6 1022.9 1023.2 0.0
25/12:30am 1.0 -3.0 -2.4 78 1.3 NW 9 11 5 6 1023.0 1023.3 0.0
25/12:00am 1.8 -2.2 -2.0 76 1.4 NW 9 11 5 6 1023.2 1023.5 0.0
 
Date/Time
EST
Temp
°C
App
Temp
°C
Dew
Point
°C
Rel
Hum
%
Delta-T
°C
Wind Press
QNH
hPa
Press
MSL
hPa
Rain since
9am
mm
Dir  Spd
km/h
Gust
km/h
Spd
kts
Gust
kts
24/11:30pm 3.6 0.3 -0.2 76 1.5 WNW 7 9 4 5 1023.5 1023.8 0.0
24/11:00pm 2.9 -0.5 -0.5 78 1.3 NW 7 9 4 5 1023.5 1023.8 0.0
24/10:30pm 3.8 1.9 0.3 78 1.4 CALM 0 0 0 0 1023.2 1023.5 0.0
24/10:00pm 3.4 1.0 -0.2 77 1.4 NW 2 6 1 3 1023.2 1023.5 0.0
24/09:30pm 3.4 0.1 -1.0 73 1.7 NW 6 7 3 4 1023.1 1023.4 0.0
24/09:00pm 4.9 2.2 0.5 73 1.8 NW 4 6 2 3 1023.1 1023.4 0.0
24/08:30pm 4.4 1.1 -0.2 72 1.9 NW 7 9 4 5 1023.0 1023.3 0.0
24/08:00pm 4.8 1.6 0.6 74 1.7 W 7 9 4 5 1022.9 1023.2 0.0
24/07:30pm 3.5 0.0 -1.1 72 1.8 WNW 7 7 4 4 1023.1 1023.4 0.0
24/07:00pm 4.3 -0.2 -0.5 71 1.9 W 13 15 7 8 1023.0 1023.3 0.0
24/06:30pm 4.9 1.0 -1.3 64 2.5 W 9 13 5 7 1022.9 1023.2 0.0
24/06:00pm 6.4 1.1 -0.6 61 2.9 WSW 17 20 9 11 1022.6 1022.8 0.0
24/05:30pm 7.3 1.9 -1.1 55 3.4 WSW 17 19 9 10 1022.2 1022.5 0.0
24/05:00pm 9.8 4.0 -1.3 46 4.6 WSW 19 22 10 12 1022.0 1022.3 0.0
24/04:30pm 11.3 4.5 -1.8 40 5.5 W 24 32 13 17 1021.8 1022.0 0.0
24/04:00pm 12.0 3.9 -3.0 35 6.1 W 30 37 16 20 1021.6 1021.8 0.0
24/03:30pm 12.6 4.7 -1.7 37 6.1 WNW 30 43 16 23 1021.5 1021.7 0.0
24/03:00pm 13.1 5.6 -1.2 37 6.1 W 28 39 15 21 1021.4 1021.6 0.0
24/02:30pm 13.1 5.1 -2.0 35 6.4 W 30 41 16 22 1021.5 1021.7 0.0
24/02:00pm 13.2 5.3 -1.5 36 6.3 W 30 39 16 21 1021.6 1021.8 0.0
24/01:30pm 13.3 5.0 -1.8 35 6.4 W 32 43 17 23 1021.6 1021.8 0.0
24/01:00pm 12.9 3.3 -1.8 36 6.2 W 39 52 21 28 1021.5 1021.7 0.0
24/12:53pm 13.0 4.7 -1.7 36 6.3 W 32 50 17 27 1021.5 1021.7 0.0
24/12:30pm 12.8 4.3 -1.5 37 6.1 W 33 46 18 25 1021.7 1021.9 0.0
24/12:00pm 12.4 4.1 -1.9 37 6.0 W 32 43 17 23 1022.0 1022.3 0.0
24/11:30am 12.3 4.4 -1.6 38 5.9 W 30 41 16 22 1022.6 1022.8 0.0
24/11:00am 12.1 4.5 -2.5 36 6.0 W 28 39 15 21 1022.9 1023.2 0.0
24/10:30am 11.7 3.6 -3.2 35 6.1 W 30 39 16 21 1023.1 1023.4 0.0
24/10:00am 11.2 3.7 -4.1 34 6.0 W 26 32 14 17 1023.2 1023.5 0.0
24/09:30am 10.5 3.5 -3.9 36 5.7 W 24 32 13 17 1023.1 1023.4 0.0
24/09:00am 9.7 3.4 -4.3 37 5.4 W 20 30 11 16 1023.0 1023.3 0.0
24/08:30am 8.3 3.0 -3.2 44 4.5 WNW 15 20 8 11 1022.9 1023.2 0.0
24/08:00am 6.5 2.0 -3.2 50 3.7 WNW 11 17 6 9 1022.7 1023.0 0.0
24/07:30am 4.2 -0.8 -4.3 54 3.1 NW 13 15 7 8 1022.2 1022.5 0.0
24/07:00am 2.7 -2.3 -4.7 58 2.6 NW 13 15 7 8 1021.9 1022.2 0.0
24/06:30am 1.8 -3.3 -5.1 60 2.5 NW 13 15 7 8 1021.6 1021.8 0.0
24/06:00am 2.2 -3.2 -4.7 60 2.5 NW 15 17 8 9 1021.4 1021.6 0.0
24/05:30am 2.3 -3.1 -4.2 62 2.5 NW 15 17 8 9 1021.1 1021.4 0.0
24/05:00am 1.8 -3.2 -3.9 66 2.1 NW 13 15 7 8 1020.9 1021.1 0.0
24/04:30am 1.2 -4.1 -3.7 70 1.8 NW 15 15 8 8 1020.8 1021.0 0.0
24/04:00am 1.2 -3.4 -3.8 69 1.8 NW 11 13 6 7 1020.8 1021.0 0.0
24/03:30am 2.0 -2.9 -3.3 68 1.9 WNW 13 15 7 8 1021.0 1021.2 0.0
24/03:00am 2.8 -2.4 -2.5 68 2.0 NW 15 19 8 10 1021.0 1021.2 0.0
24/02:30am 1.9 -2.9 -2.4 73 1.6 WNW 13 15 7 8 1021.0 1021.2 0.0
24/02:00am 2.2 -2.2 -2.7 70 1.8 WNW 11 15 6 8 1021.0 1021.2 0.0
24/01:30am 2.5 -1.9 -2.2 71 1.8 WNW 11 13 6 7 1021.3 1021.5 0.0
24/01:00am 2.9 -1.8 -1.8 71 1.8 WNW 13 15 7 8 1021.3 1021.5 0.0
24/12:30am 3.0 -2.0 -1.5 72 1.7 WNW 15 17 8 9 1021.4 1021.6 0.0
24/12:00am 3.5 -1.1 -0.9 73 1.7 WNW 13 17 7 9 1021.5 1021.7 0.0
 
Date/Time
EST
Temp
°C
App
Temp
°C
Dew
Point
°C
Rel
Hum
%
Delta-T
°C
Wind Press
QNH
hPa
Press
MSL
hPa
Rain since
9am
mm
Dir  Spd
km/h
Gust
km/h
Spd
kts
Gust
kts
23/11:30pm 3.3 -1.7 -1.1 73 1.7 NW 15 17 8 9 1021.6 1021.8 0.0
23/11:00pm 3.5 -1.8 -0.5 75 1.6 NW 17 20 9 11 1021.6 1021.8 0.0
23/10:30pm 3.8 -1.4 -0.2 75 1.6 WNW 17 19 9 10 1021.7 1021.9 0.0
23/10:00pm 3.6 -0.9 -0.4 75 1.6 NW 13 15 7 8 1021.7 1021.9 0.0
23/09:30pm 3.4 -1.8 0.1 79 1.3 NW 17 19 9 10 1021.6 1021.8 0.0
23/09:00pm 3.1 -1.4 -0.4 78 1.4 WNW 13 17 7 9 1021.6 1021.8 0.0
23/08:30pm 3.2 -0.6 -0.8 75 1.6 WNW 9 11 5 6 1021.5 1021.7 0.0
23/08:00pm 2.7 -1.2 -1.8 72 1.7 WNW 9 11 5 6 1021.4 1021.6 0.0
23/07:30pm 3.2 -1.1 -1.9 69 2.0 WNW 11 13 6 7 1021.0 1021.2 0.0
23/07:00pm 3.4 -1.4 -2.7 64 2.3 WNW 13 15 7 8 1020.9 1021.1 0.0
23/06:30pm 5.1 0.3 -2.2 59 2.8 W 13 15 7 8 1020.6 1020.8 0.0
23/06:00pm 5.4 0.9 -3.4 53 3.3 W 11 15 6 8 1020.4 1020.6 0.0
23/05:30pm 6.8 2.6 -3.7 47 4.0 W 9 11 5 6 1020.1 1020.3 0.0
23/05:00pm 9.1 4.1 -4.4 38 5.2 WNW 13 17 7 9 1019.9 1020.1 0.0
23/04:30pm 10.9 5.1 -5.1 32 6.2 WNW 17 20 9 11 1019.8 1020.0 0.0
23/04:00pm 11.6 5.2 -5.4 30 6.6 W 20 30 11 16 1019.6 1019.8 0.0
23/03:30pm 12.0 4.8 -5.5 29 6.8 W 24 32 13 17 1019.4 1019.5 0.0
23/03:00pm 12.2 5.8 -2.0 37 5.9 WNW 22 32 12 17 1019.3 1019.4 0.0
23/02:30pm 12.1 5.9 -0.4 42 5.4 WNW 22 32 12 17 1019.1 1019.3 0.0
23/02:00pm 11.8 5.1 -1.3 40 5.6 WNW 24 32 13 17 1019.3 1019.4 0.0
23/01:30pm 11.5 4.4 -1.3 41 5.4 WNW 26 33 14 18 1019.6 1019.8 0.0
23/01:00pm 11.5 4.8 -0.9 42 5.3 W 24 30 13 16 1019.9 1020.1 0.0
23/12:30pm 11.1 3.5 -2.3 39 5.5 WNW 28 35 15 19 1020.4 1020.6 0.0
23/12:00pm 10.8 3.1 -3.3 37 5.7 W 28 35 15 19 1020.5 1020.7 0.0
23/11:30am 10.1 2.9 -1.9 43 4.9 W 26 33 14 18 1020.9 1021.1 0.0
23/11:00am 9.8 2.7 -1.6 45 4.7 W 26 33 14 18 1021.1 1021.4 0.0
23/10:30am 9.5 3.1 1.2 56 3.7 WNW 24 30 13 16 1021.3 1021.5 0.0
23/10:00am 8.5 1.4 1.4 61 3.1 WNW 28 35 15 19 1021.8 1022.0 0.0
23/09:30am 7.9 1.0 2.4 68 2.5 WNW 28 35 15 19 1022.1 1022.4 0.0
23/09:00am 7.1 1.4 3.0 75 1.8 WNW 22 28 12 15 1022.0 1022.3 0.2
23/08:30am 5.9 1.2 3.4 84 1.1 WNW 17 22 9 12 1021.9 1022.2 0.2
23/08:00am 4.1 -0.7 2.5 89 0.7 WNW 17 20 9 11 1021.9 1022.2 0.2
23/07:30am 2.6 -2.4 1.4 92 0.5 WNW 17 19 9 10 1021.6 1021.8 0.0
23/07:00am 0.3 -4.6 -0.5 94 0.3 WNW 15 17 8 9 1021.5 1021.7 0.0
23/06:30am 0.0 -4.9 -0.8 94 0.3 WNW 15 17 8 9 1021.3 1021.5 0.0
23/06:00am 0.2 -4.7 -0.8 93 0.4 WNW 15 17 8 9 1021.1 1021.4 0.0
23/05:30am -0.2 -4.8 -1.2 93 0.4 W 13 15 7 8 1020.9 1021.1 0.0
23/05:00am -0.8 -5.5 -1.9 92 0.4 WNW 13 15 7 8 1020.7 1020.9 0.0
23/04:30am -0.9 -5.7 -2.3 90 0.5 W 13 15 7 8 1020.5 1020.7 0.0
23/04:00am -0.7 -5.9 -2.6 87 0.7 WNW 15 17 8 9 1020.5 1020.7 0.0
23/03:30am 0.0 -4.4 -2.4 84 0.9 WNW 11 11 6 6 1020.5 1020.7 0.0
23/03:00am 1.4 -2.8 -1.2 83 1.0 WNW 11 15 6 8 1020.6 1020.8 0.0
23/02:30am 1.6 -3.0 -1.0 83 1.0 WNW 13 15 7 8 1020.6 1020.8 0.0
23/02:00am 1.9 -2.3 -0.7 83 1.0 NW 11 13 6 7 1020.7 1020.9 0.0
23/01:30am 1.1 -3.2 -1.5 83 1.0 NW 11 15 6 8 1021.3 1021.5 0.0
23/01:00am 1.4 -2.8 -1.2 83 1.0 NW 11 13 6 7 1021.3 1021.5 0.0
23/12:30am 2.0 -1.8 -0.9 81 1.1 WNW 9 13 5 7 1021.6 1021.8 0.0
23/12:00am 2.0 -1.4 -0.7 82 1.0 NW 7 9 4 5 1021.8 1022.0 0.0
 
Date/Time
EST
Temp
°C
App
Temp
°C
Dew
Point
°C
Rel
Hum
%
Delta-T
°C
Wind Press
QNH
hPa
Press
MSL
hPa
Rain since
9am
mm
Dir  Spd
km/h
Gust
km/h
Spd
kts
Gust
kts
22/11:30pm 1.1 -2.4 -1.6 82 1.0 N 7 9 4 5 1021.9 1022.2 0.0
22/11:00pm 0.9 -2.7 -2.0 81 1.1 N 7 11 4 6 1022.0 1022.3 0.0

Other Formats:

Comma delimited format used in spreadsheet applications
http://www.bom.gov.au/fwo/IDN60801/IDN60801.95773.axf

JavaScript Object Notation format (JSON) in row-major order
http://www.bom.gov.au/fwo/IDN60801/IDN60801.95773.json